createdAt,value
2022-08-11T00:00:45.241Z,1.30
2022-08-11T00:04:00.063Z,1.00
2022-08-11T00:07:06.203Z,0.90
2022-08-11T00:10:12.106Z,0.85
2022-08-11T00:13:14.150Z,1.03
2022-08-11T00:16:22.688Z,1.05
2022-08-11T00:20:11.684Z,1.20
2022-08-11T00:23:08.862Z,1.10
2022-08-11T00:26:11.928Z,1.02
2022-08-11T00:29:13.798Z,0.75
2022-08-11T00:32:15.990Z,1.10
2022-08-11T00:35:53.888Z,1.05
2022-08-11T00:38:50.154Z,0.70
2022-08-11T00:42:06.972Z,1.10
2022-08-11T00:45:26.346Z,1.25
2022-08-11T00:48:41.488Z,0.82
2022-08-11T00:51:59.698Z,1.20
2022-08-11T00:55:36.678Z,0.98
2022-08-11T00:58:51.097Z,1.20
2022-08-11T01:02:30.973Z,0.98
2022-08-11T01:05:34.930Z,1.30
2022-08-11T01:09:22.682Z,0.88
2022-08-11T01:12:30.910Z,1.30
2022-08-11T01:15:55.888Z,1.48
2022-08-11T01:19:14.830Z,1.15
2022-08-11T01:22:33.801Z,1.00
2022-08-11T01:25:59.785Z,1.17
2022-08-11T01:29:04.647Z,1.17
2022-08-11T01:32:43.989Z,1.23
2022-08-11T01:36:07.741Z,1.30
2022-08-11T01:39:37.159Z,0.98
2022-08-11T01:43:22.912Z,0.80
2022-08-11T01:46:40.260Z,1.08
2022-08-11T01:53:34.570Z,1.05
2022-08-11T01:56:59.176Z,1.25
2022-08-11T02:00:09.608Z,1.08
2022-08-11T02:03:21.386Z,1.30
2022-08-11T02:06:56.824Z,1.30
2022-08-11T02:10:50.613Z,1.17
2022-08-11T02:14:07.484Z,1.30
2022-08-11T02:17:39.097Z,1.20
2022-08-11T02:21:16.544Z,1.08
2022-08-11T02:24:26.789Z,0.97
2022-08-11T02:27:39.606Z,1.30
2022-08-11T02:31:09.856Z,1.25
2022-08-11T02:35:00.196Z,1.23
2022-08-11T02:38:15.676Z,1.27
2022-08-11T02:42:03.549Z,1.50
2022-08-11T02:45:30.524Z,1.40
2022-08-11T02:49:23.336Z,1.47
2022-08-11T02:52:32.667Z,1.45
2022-08-11T02:55:56.533Z,1.65
2022-08-11T02:59:22.061Z,0.93
2022-08-11T03:02:32.596Z,1.48
2022-08-11T03:05:49.311Z,1.50
2022-08-11T03:09:00.238Z,1.40
2022-08-11T03:12:44.797Z,1.42
2022-08-11T03:16:31.014Z,1.20
2022-08-11T03:20:00.281Z,1.92
2022-08-11T03:23:21.143Z,1.70
2022-08-11T03:26:42.810Z,1.33
2022-08-11T03:30:11.011Z,1.40
2022-08-11T03:33:45.443Z,1.50
2022-08-11T03:37:16.959Z,1.52
2022-08-11T03:40:38.572Z,1.30
2022-08-11T03:44:07.888Z,1.48
2022-08-11T03:47:52.278Z,1.50
2022-08-11T03:51:21.957Z,1.25
2022-08-11T03:55:02.834Z,1.60
2022-08-11T03:58:29.889Z,1.73
2022-08-11T04:01:50.626Z,1.53
2022-08-11T04:05:14.181Z,1.42
2022-08-11T04:08:45.531Z,1.33
2022-08-11T04:11:56.194Z,1.88
2022-08-11T04:15:38.437Z,1.52
2022-08-11T04:19:09.144Z,1.80
2022-08-11T04:22:44.747Z,1.52
2022-08-11T04:26:18.499Z,1.80
2022-08-11T04:29:36.003Z,1.85
2022-08-11T04:33:19.290Z,1.55
2022-08-11T04:37:13.356Z,1.42
2022-08-11T04:40:27.596Z,1.33
2022-08-11T04:44:02.189Z,1.48
2022-08-11T04:48:01.655Z,1.48
2022-08-11T04:51:48.036Z,1.42
2022-08-11T04:55:37.673Z,1.50
2022-08-11T04:59:32.674Z,1.23
2022-08-11T05:02:56.366Z,1.80
2022-08-11T05:06:01.427Z,1.58
2022-08-11T05:09:20.272Z,1.80
2022-08-11T05:12:38.349Z,1.48
2022-08-11T05:16:10.963Z,1.52
2022-08-11T05:19:36.726Z,1.92
2022-08-11T05:23:09.108Z,1.85
2022-08-11T05:26:47.952Z,1.73
2022-08-11T05:30:20.352Z,1.70
2022-08-11T05:33:49.708Z,1.65
2022-08-11T05:36:59.134Z,1.52
2022-08-11T05:40:30.405Z,1.40
2022-08-11T05:44:20.358Z,1.40
2022-08-11T05:47:42.405Z,1.80
2022-08-11T05:51:11.634Z,1.23
2022-08-11T05:54:49.420Z,1.20
2022-08-11T05:58:06.310Z,2.10
2022-08-11T06:01:08.791Z,1.60
2022-08-11T06:04:22.018Z,1.70
2022-08-11T06:07:30.383Z,1.60
2022-08-11T06:11:00.824Z,1.50
2022-08-11T06:14:12.855Z,1.70
2022-08-11T06:17:38.682Z,1.40
2022-08-11T06:20:54.390Z,1.30
2022-08-11T06:23:56.844Z,1.42
2022-08-11T06:27:12.325Z,1.70
2022-08-11T06:30:15.357Z,1.33
2022-08-11T06:33:46.317Z,1.67
2022-08-11T06:36:56.063Z,1.55
2022-08-11T06:40:10.330Z,1.63
2022-08-11T06:43:24.315Z,1.40
2022-08-11T06:46:48.131Z,1.50
2022-08-11T06:50:08.680Z,1.35
2022-08-11T06:53:12.587Z,1.95
2022-08-11T06:56:34.474Z,1.48
2022-08-11T06:59:55.778Z,1.65
2022-08-11T07:03:03.591Z,1.45
2022-08-11T07:06:23.481Z,1.80
2022-08-11T07:10:26.645Z,1.50
2022-08-11T07:13:47.581Z,1.70
2022-08-11T07:16:51.517Z,1.52
2022-08-11T07:20:18.097Z,1.90
2022-08-11T07:23:39.023Z,1.52
2022-08-11T07:27:04.377Z,1.70
2022-08-11T07:30:09.875Z,1.48
2022-08-11T07:33:17.613Z,1.63
2022-08-11T07:36:40.099Z,1.30
2022-08-11T07:39:44.567Z,1.70
2022-08-11T07:42:47.057Z,1.20
2022-08-11T07:46:07.720Z,1.30
2022-08-11T07:49:29.289Z,1.40
2022-08-11T07:52:34.246Z,1.23
2022-08-11T07:55:49.548Z,1.30
2022-08-11T07:59:13.523Z,1.00
2022-08-11T08:02:36.204Z,1.10
2022-08-11T08:05:57.322Z,1.20
2022-08-11T08:09:18.550Z,1.10
2022-08-11T08:12:40.713Z,1.63
2022-08-11T08:16:01.781Z,1.05
2022-08-11T08:19:04.131Z,1.25
2022-08-11T08:22:37.473Z,1.40
2022-08-11T08:25:37.055Z,1.40
2022-08-11T08:28:39.800Z,1.02
2022-08-11T08:31:42.515Z,1.15
2022-08-11T08:34:46.711Z,1.23
2022-08-11T08:37:52.856Z,1.20
2022-08-11T08:40:57.577Z,1.20
2022-08-11T08:44:34.701Z,1.15
2022-08-11T08:47:41.537Z,0.90
2022-08-11T08:51:08.025Z,1.10
2022-08-11T08:54:34.270Z,0.98
2022-08-11T08:57:39.216Z,1.13
2022-08-11T09:00:46.279Z,1.13
2022-08-11T09:04:06.788Z,1.27
2022-08-11T09:07:13.273Z,0.90
2022-08-11T09:10:18.869Z,0.90
2022-08-11T09:13:20.938Z,0.80
2022-08-11T09:16:27.000Z,1.00
2022-08-11T09:19:29.645Z,1.02
2022-08-11T09:23:41.385Z,0.90
2022-08-11T09:26:39.710Z,1.00
2022-08-11T09:29:43.327Z,1.10
2022-08-11T09:32:47.321Z,0.90
2022-08-11T09:35:52.045Z,1.27
2022-08-11T09:39:13.070Z,1.33
2022-08-11T09:42:16.498Z,0.70
2022-08-11T09:45:25.982Z,1.00
2022-08-11T09:48:33.642Z,0.90
2022-08-11T09:51:38.660Z,0.77
2022-08-11T09:54:48.183Z,0.60
2022-08-11T09:58:09.402Z,1.15
2022-08-11T10:01:28.670Z,0.70
2022-08-11T10:04:42.169Z,0.77
2022-08-11T10:07:52.408Z,0.73
2022-08-11T10:10:58.070Z,0.60
2022-08-11T10:14:33.098Z,0.60
2022-08-11T10:18:02.623Z,0.50
2022-08-11T10:21:18.197Z,0.63
2022-08-11T10:24:42.732Z,0.60
2022-08-11T10:28:28.188Z,0.57
2022-08-11T10:31:27.518Z,0.55
2022-08-11T10:34:49.585Z,0.70
2022-08-11T10:38:08.050Z,0.80
2022-08-11T10:41:30.028Z,0.77
2022-08-11T10:44:44.078Z,0.70
2022-08-11T10:47:49.054Z,0.75
2022-08-11T10:51:13.377Z,1.08
2022-08-11T10:54:34.635Z,0.80
2022-08-11T10:58:05.386Z,1.00
2022-08-11T11:01:08.942Z,0.50
2022-08-11T11:04:16.773Z,0.55
2022-08-11T11:07:24.428Z,0.70
2022-08-11T11:10:26.435Z,0.70
2022-08-11T11:13:53.287Z,0.40
2022-08-11T11:17:16.725Z,0.50
2022-08-11T11:20:36.678Z,0.45
2022-08-11T11:24:02.955Z,0.63
2022-08-11T11:27:46.707Z,0.43
2022-08-11T11:31:00.581Z,0.52
2022-08-11T11:34:36.448Z,0.60
2022-08-11T11:41:26.501Z,0.67
2022-08-11T11:44:30.723Z,0.38
2022-08-11T11:47:33.150Z,0.43
2022-08-11T11:50:37.342Z,0.50
2022-08-11T11:53:39.572Z,0.70
2022-08-11T11:56:43.117Z,0.60
2022-08-11T12:00:04.143Z,0.70
2022-08-11T12:03:11.704Z,0.60
2022-08-11T12:06:14.805Z,0.40
2022-08-11T12:09:23.493Z,0.50
2022-08-11T12:12:45.496Z,0.85
2022-08-11T12:16:31.214Z,0.50
2022-08-11T12:19:17.480Z,0.40
2022-08-11T12:22:38.584Z,0.70
2022-08-11T12:26:23.412Z,0.50
2022-08-11T12:29:27.340Z,0.40
2022-08-11T12:32:31.586Z,0.50
2022-08-11T12:35:35.452Z,0.50
2022-08-11T12:38:37.565Z,0.60
2022-08-11T12:42:00.122Z,0.60
2022-08-11T12:45:27.856Z,0.40
2022-08-11T12:49:00.047Z,0.60
2022-08-11T12:52:13.388Z,0.50
2022-08-11T12:55:39.160Z,0.70
2022-08-11T12:58:42.484Z,0.60
2022-08-11T13:02:03.444Z,0.52
2022-08-11T13:05:07.863Z,0.50
2022-08-11T13:08:10.070Z,0.63
2022-08-11T13:11:56.632Z,0.70
2022-08-11T13:14:53.635Z,0.77
2022-08-11T13:17:55.793Z,0.60
2022-08-11T13:20:58.644Z,1.42
2022-08-11T13:24:03.644Z,0.70
2022-08-11T13:27:05.973Z,0.55
2022-08-11T13:30:26.812Z,0.50
2022-08-11T13:33:29.004Z,0.55
2022-08-11T13:36:30.864Z,0.57
2022-08-11T13:39:33.833Z,0.50
2022-08-11T13:42:36.580Z,0.50
2022-08-11T13:45:38.925Z,0.60
2022-08-11T13:48:42.467Z,0.80
2022-08-11T13:51:44.667Z,0.50
2022-08-11T13:54:48.589Z,0.75
2022-08-11T13:58:08.125Z,0.50
2022-08-11T14:01:16.838Z,0.50
2022-08-11T14:04:39.678Z,0.60
2022-08-11T14:08:03.133Z,0.50
2022-08-11T14:12:20.542Z,0.50
2022-08-11T14:14:52.629Z,0.60
2022-08-11T14:18:03.496Z,0.52
2022-08-11T14:21:24.793Z,0.52
2022-08-11T14:24:29.992Z,0.75
2022-08-11T14:28:15.495Z,0.55
2022-08-11T14:31:01.153Z,0.45
2022-08-11T14:34:15.795Z,0.50
2022-08-11T14:40:42.832Z,0.50
2022-08-11T14:44:13.852Z,0.50
2022-08-11T14:47:23.831Z,0.57
2022-08-11T14:50:29.702Z,0.50
2022-08-11T14:53:32.322Z,0.40
2022-08-11T14:56:37.263Z,0.50
2022-08-11T14:59:39.461Z,0.60
2022-08-11T15:03:02.599Z,0.52
2022-08-11T15:06:05.468Z,0.70
2022-08-11T15:09:09.189Z,0.60
2022-08-11T15:12:32.285Z,0.68
2022-08-11T15:15:56.530Z,0.55
2022-08-11T15:18:59.457Z,0.80
2022-08-11T15:22:22.854Z,0.60
2022-08-11T15:25:28.829Z,0.68
2022-08-11T15:28:53.762Z,0.50
2022-08-11T15:32:14.825Z,0.50
2022-08-11T15:35:39.146Z,0.80
2022-08-11T15:38:55.247Z,0.43
2022-08-11T15:42:26.907Z,0.50
2022-08-11T15:45:52.074Z,0.50
2022-08-11T15:49:00.079Z,0.40
2022-08-11T15:52:11.319Z,0.40
2022-08-11T15:55:14.361Z,0.50
2022-08-11T15:58:36.256Z,0.40
2022-08-11T16:01:59.755Z,0.45
2022-08-11T16:05:04.331Z,0.50
2022-08-11T16:08:09.778Z,0.90
2022-08-11T16:11:15.519Z,0.60
2022-08-11T16:14:38.169Z,0.52
2022-08-11T16:17:45.689Z,0.30
2022-08-11T16:20:51.617Z,0.30
2022-08-11T16:23:56.732Z,0.70
2022-08-11T16:27:08.155Z,0.30
2022-08-11T16:30:17.215Z,0.50
2022-08-11T16:33:48.584Z,0.60
2022-08-11T16:37:01.574Z,0.55
2022-08-11T16:40:04.912Z,0.52
2022-08-11T16:43:31.372Z,0.40
2022-08-11T16:46:52.501Z,0.60
2022-08-11T16:49:59.882Z,0.60
2022-08-11T16:53:04.507Z,0.50
2022-08-11T16:56:08.182Z,0.95
2022-08-11T16:59:18.856Z,0.82
2022-08-11T17:02:42.678Z,0.70
2022-08-11T17:06:15.037Z,0.35
2022-08-11T17:09:40.872Z,0.40
2022-08-11T17:13:05.065Z,0.60
2022-08-11T17:16:12.959Z,0.60
2022-08-11T17:20:42.470Z,1.75
2022-08-11T17:23:24.012Z,1.55
2022-08-11T17:26:57.275Z,4.53
2022-08-11T17:30:02.916Z,3.75
2022-08-11T17:33:23.470Z,1.20
2022-08-11T17:36:26.260Z,0.90
2022-08-11T17:39:31.531Z,0.70
2022-08-11T17:42:55.804Z,0.40
2022-08-11T17:46:16.787Z,1.67
2022-08-11T17:49:20.886Z,1.60
2022-08-11T17:52:44.838Z,0.50
2022-08-11T17:56:13.795Z,0.80
2022-08-11T17:59:38.310Z,0.63
2022-08-11T18:03:00.539Z,0.70
2022-08-11T18:06:07.154Z,0.68
2022-08-11T18:09:39.426Z,0.95
2022-08-11T18:13:02.106Z,1.27
2022-08-11T18:16:28.237Z,0.50
2022-08-11T18:19:53.883Z,1.10
2022-08-11T18:23:15.704Z,0.70
2022-08-11T18:26:39.078Z,0.57
2022-08-11T18:30:01.919Z,0.85
2022-08-11T18:37:19.986Z,0.85
2022-08-11T18:40:47.009Z,0.50
2022-08-11T18:44:12.851Z,0.50
2022-08-11T18:47:34.755Z,0.30
2022-08-11T18:51:29.950Z,1.15
2022-08-11T18:54:39.935Z,0.50
2022-08-11T18:58:02.199Z,0.28
2022-08-11T19:01:25.108Z,0.40
2022-08-11T19:04:46.881Z,0.50
2022-08-11T19:08:14.790Z,0.35
2022-08-11T19:25:00.768Z,0.50
2022-08-11T19:28:25.272Z,0.40
2022-08-11T19:31:47.035Z,0.40
2022-08-11T19:35:08.657Z,0.50
2022-08-11T19:38:30.123Z,0.50
2022-08-11T19:41:57.493Z,0.40
2022-08-11T19:49:39.992Z,0.70
2022-08-11T19:53:17.341Z,0.32
2022-08-11T19:56:40.058Z,0.50
2022-08-11T20:00:01.346Z,0.70
2022-08-11T20:03:28.392Z,0.70
2022-08-11T20:06:49.154Z,0.60
2022-08-11T20:10:10.010Z,0.60
2022-08-11T20:13:31.404Z,0.50
2022-08-11T20:16:52.546Z,0.70
2022-08-11T20:20:14.499Z,0.80
2022-08-11T20:23:36.235Z,0.63
2022-08-11T20:26:57.045Z,0.70
2022-08-11T20:30:17.962Z,0.40
2022-08-11T20:33:39.444Z,0.55
2022-08-11T20:37:01.233Z,0.55
2022-08-11T20:40:25.639Z,0.60
2022-08-11T20:44:05.876Z,0.40
2022-08-11T20:47:27.553Z,0.65
2022-08-11T20:50:50.963Z,0.90
2022-08-11T20:54:13.451Z,0.80
2022-08-11T20:57:58.772Z,0.60
2022-08-11T21:01:20.387Z,0.57
2022-08-11T21:04:54.019Z,0.77
2022-08-11T21:08:15.405Z,0.68
2022-08-11T21:11:37.563Z,0.80
2022-08-11T21:14:58.830Z,0.73
2022-08-11T21:18:28.244Z,0.40
2022-08-11T21:44:45.582Z,0.52
2022-08-11T21:48:47.496Z,0.57
2022-08-11T21:53:08.306Z,0.50
2022-08-11T22:20:04.613Z,0.57
2022-08-11T22:23:25.887Z,0.77
2022-08-11T22:26:56.571Z,0.63
2022-08-11T22:30:17.333Z,0.60
2022-08-11T22:33:42.099Z,0.77
2022-08-11T22:37:26.941Z,0.60
2022-08-11T22:40:48.282Z,0.50
2022-08-11T22:44:09.031Z,0.43
2022-08-11T22:47:40.439Z,0.50
2022-08-11T22:51:02.065Z,0.55
2022-08-11T22:54:23.915Z,0.52
2022-08-11T22:58:00.476Z,0.55
2022-08-11T23:01:21.665Z,0.70
2022-08-11T23:04:42.881Z,1.02
2022-08-11T23:08:03.927Z,0.80
2022-08-11T23:11:25.198Z,0.73
2022-08-11T23:14:45.962Z,0.73
2022-08-11T23:18:07.169Z,0.52
2022-08-11T23:21:28.558Z,0.45
2022-08-11T23:24:49.544Z,0.70
2022-08-11T23:28:10.263Z,0.60
2022-08-11T23:31:51.272Z,0.80
2022-08-11T23:35:38.614Z,0.60
2022-08-11T23:38:55.814Z,0.73
2022-08-11T23:42:16.471Z,0.90
2022-08-11T23:45:37.862Z,0.60
2022-08-11T23:48:58.303Z,0.70
2022-08-11T23:52:21.985Z,0.60
2022-08-11T23:55:42.281Z,0.40
2022-08-11T23:59:04.045Z,0.70
